createdAt,value
2022-09-18T00:00:22.083Z,49.25
2022-09-18T00:02:54.890Z,49.66
2022-09-18T00:05:29.068Z,48.82
2022-09-18T00:08:02.202Z,48.91
2022-09-18T00:10:35.073Z,48.48
2022-09-18T00:13:07.864Z,49.15
2022-09-18T00:15:41.085Z,48.74
2022-09-18T00:18:13.630Z,48.25
2022-09-18T00:20:47.705Z,48.33
2022-09-18T00:23:20.539Z,48.83
2022-09-18T00:25:53.409Z,48.72
2022-09-18T00:28:26.503Z,48.50
2022-09-18T00:31:04.066Z,49.22
2022-09-18T00:33:37.668Z,49.44
2022-09-18T00:36:13.652Z,49.42
2022-09-18T00:38:48.373Z,49.00
2022-09-18T00:41:24.215Z,48.94
2022-09-18T00:44:33.971Z,48.69
2022-09-18T00:47:27.137Z,49.44
2022-09-18T00:50:10.914Z,49.50
2022-09-18T00:52:51.096Z,49.55
2022-09-18T00:55:28.301Z,49.82
2022-09-18T00:58:04.071Z,49.41
2022-09-18T01:00:37.169Z,49.08
2022-09-18T01:03:10.138Z,49.17
2022-09-18T01:06:06.894Z,49.07
2022-09-18T01:08:56.469Z,49.06
2022-09-18T01:11:38.103Z,50.00
2022-09-18T01:14:24.638Z,49.47
2022-09-18T01:17:09.061Z,49.63
2022-09-18T01:20:07.799Z,49.65
2022-09-18T01:22:55.866Z,49.26
2022-09-18T01:25:38.301Z,49.45
2022-09-18T01:28:20.368Z,48.99
2022-09-18T01:30:58.352Z,49.01
2022-09-18T01:33:38.435Z,49.07
2022-09-18T01:36:16.315Z,49.73
2022-09-18T01:38:53.195Z,49.55
2022-09-18T01:41:28.985Z,49.22
2022-09-18T01:44:10.444Z,49.50
2022-09-18T01:46:45.881Z,49.20
2022-09-18T01:49:24.511Z,49.36
2022-09-18T01:52:03.759Z,49.30
2022-09-18T01:54:39.897Z,49.37
2022-09-18T01:57:18.291Z,49.39
2022-09-18T01:59:58.627Z,48.95
2022-09-18T02:02:39.237Z,49.28
2022-09-18T02:05:17.235Z,49.26
2022-09-18T02:07:57.469Z,50.06
2022-09-18T02:10:34.750Z,49.74
2022-09-18T02:13:13.528Z,49.60
2022-09-18T02:15:50.599Z,49.51
2022-09-18T02:18:31.307Z,49.92
2022-09-18T02:21:09.564Z,50.04
2022-09-18T02:23:44.056Z,49.85
2022-09-18T02:26:19.998Z,49.83
2022-09-18T02:28:54.296Z,49.22
2022-09-18T02:31:29.332Z,49.50
2022-09-18T02:34:03.751Z,49.75
2022-09-18T02:36:52.642Z,49.65
2022-09-18T02:39:41.932Z,49.64
2022-09-18T02:42:28.054Z,49.30
2022-09-18T02:45:11.353Z,49.45
2022-09-18T02:48:00.449Z,49.73
2022-09-18T02:50:45.394Z,49.40
2022-09-18T02:53:26.855Z,49.52
2022-09-18T02:56:04.117Z,49.28
2022-09-18T02:58:44.885Z,48.47
2022-09-18T03:01:21.116Z,48.65
2022-09-18T03:03:56.907Z,48.92
2022-09-18T03:06:43.018Z,48.80
2022-09-18T03:09:17.112Z,48.46
2022-09-18T03:11:50.342Z,49.46
2022-09-18T03:14:25.358Z,48.08
2022-09-18T03:16:58.026Z,48.95
2022-09-18T03:19:32.154Z,48.61
2022-09-18T03:22:06.546Z,48.33
2022-09-18T03:24:42.303Z,48.48
2022-09-18T03:27:15.120Z,48.77
2022-09-18T03:29:48.146Z,49.02
2022-09-18T03:32:23.609Z,49.46
2022-09-18T03:35:01.229Z,49.28
2022-09-18T03:37:34.698Z,49.27
2022-09-18T03:40:10.486Z,49.15
2022-09-18T03:42:44.220Z,49.83
2022-09-18T03:45:20.739Z,49.05
2022-09-18T03:47:53.571Z,49.08
2022-09-18T03:50:30.693Z,48.99
2022-09-18T03:53:04.810Z,49.10
2022-09-18T03:56:13.605Z,48.65
2022-09-18T03:59:04.644Z,48.59
2022-09-18T04:01:48.417Z,48.47
2022-09-18T04:04:33.011Z,48.10
2022-09-18T04:07:25.238Z,48.32
2022-09-18T04:10:00.650Z,48.58
2022-09-18T04:12:33.564Z,48.25
2022-09-18T04:15:20.883Z,49.04
2022-09-18T04:17:53.613Z,49.17
2022-09-18T04:20:26.686Z,48.79
2022-09-18T04:23:00.936Z,48.97
2022-09-18T04:25:33.962Z,49.26
2022-09-18T04:28:07.343Z,49.57
2022-09-18T04:30:45.013Z,49.14
2022-09-18T04:33:18.035Z,49.47
2022-09-18T04:35:54.064Z,49.29
2022-09-18T04:38:29.758Z,49.02
2022-09-18T04:41:03.019Z,48.58
2022-09-18T04:43:36.450Z,48.85
2022-09-18T04:46:11.360Z,48.66
2022-09-18T04:48:49.246Z,48.79
2022-09-18T04:51:23.188Z,48.69
2022-09-18T04:53:58.714Z,49.04
2022-09-18T04:56:31.755Z,48.89
2022-09-18T04:59:04.942Z,49.04
2022-09-18T05:01:38.843Z,49.08
2022-09-18T05:04:18.017Z,48.40
2022-09-18T05:07:11.551Z,48.58
2022-09-18T05:09:53.486Z,48.80
2022-09-18T05:12:26.527Z,48.54
2022-09-18T05:14:59.415Z,48.99
2022-09-18T05:17:35.514Z,48.80
2022-09-18T05:20:11.816Z,48.66
2022-09-18T05:22:47.100Z,48.51
2022-09-18T05:25:29.006Z,48.49
2022-09-18T05:28:03.758Z,48.86
2022-09-18T05:30:46.247Z,48.92
2022-09-18T05:33:20.052Z,48.60
2022-09-18T05:35:55.052Z,49.02
2022-09-18T05:38:28.478Z,48.85
2022-09-18T05:41:03.948Z,48.87
2022-09-18T05:43:36.759Z,48.79
2022-09-18T05:46:14.736Z,49.33
2022-09-18T05:49:01.382Z,48.81
2022-09-18T05:51:34.791Z,48.83
2022-09-18T05:54:07.654Z,48.84
2022-09-18T05:56:48.203Z,48.36
2022-09-18T05:59:20.873Z,48.42
2022-09-18T06:01:54.637Z,48.61
2022-09-18T06:04:32.829Z,49.42
2022-09-18T06:07:11.627Z,49.29
2022-09-18T06:09:44.489Z,48.84
2022-09-18T06:12:21.198Z,48.60
2022-09-18T06:14:55.098Z,48.85
2022-09-18T06:17:27.912Z,48.90
2022-09-18T06:20:06.274Z,49.12
2022-09-18T06:22:39.159Z,48.50
2022-09-18T06:25:16.704Z,48.73
2022-09-18T06:27:54.548Z,48.12
2022-09-18T06:30:28.187Z,48.96
2022-09-18T06:33:02.009Z,48.66
2022-09-18T06:35:35.585Z,48.23
2022-09-18T06:38:09.361Z,48.49
2022-09-18T06:40:51.688Z,48.63
2022-09-18T06:43:31.184Z,48.48
2022-09-18T06:46:23.550Z,48.71
2022-09-18T06:48:56.873Z,48.25
2022-09-18T06:51:29.527Z,48.00
2022-09-18T06:54:21.304Z,48.08
2022-09-18T06:56:55.911Z,48.20
2022-09-18T06:59:30.083Z,48.67
2022-09-18T07:02:02.778Z,48.60
2022-09-18T07:04:54.357Z,49.71
2022-09-18T07:07:27.322Z,49.03
2022-09-18T07:10:03.667Z,48.64
2022-09-18T07:12:48.239Z,48.74
2022-09-18T07:15:26.078Z,48.47
2022-09-18T07:18:00.171Z,48.55
2022-09-18T07:20:34.522Z,48.39
2022-09-18T07:23:07.677Z,48.96
2022-09-18T07:25:49.558Z,48.49
2022-09-18T07:28:22.576Z,48.67
2022-09-18T07:31:06.035Z,48.14
2022-09-18T07:33:40.434Z,48.73
2022-09-18T07:36:14.085Z,47.92
2022-09-18T07:38:50.673Z,48.55
2022-09-18T07:41:24.655Z,48.11
2022-09-18T07:43:57.446Z,48.43
2022-09-18T07:46:34.039Z,47.99
2022-09-18T07:49:09.914Z,48.15
2022-09-18T07:51:42.836Z,48.39
2022-09-18T07:54:16.462Z,48.03
2022-09-18T07:57:01.284Z,47.58
2022-09-18T07:59:41.810Z,48.12
2022-09-18T08:02:17.401Z,48.21
2022-09-18T08:04:50.146Z,48.41
2022-09-18T08:07:28.454Z,48.29
2022-09-18T08:10:15.705Z,49.00
2022-09-18T08:13:05.398Z,48.39
2022-09-18T08:15:57.845Z,48.33
2022-09-18T08:18:40.571Z,48.60
2022-09-18T08:21:32.189Z,48.40
2022-09-18T08:24:08.033Z,48.72
2022-09-18T08:26:41.712Z,48.08
2022-09-18T08:29:19.122Z,48.20
2022-09-18T08:31:58.506Z,48.71
2022-09-18T08:34:32.633Z,48.53
2022-09-18T08:37:05.561Z,48.46
2022-09-18T08:39:57.338Z,48.49
2022-09-18T08:42:55.501Z,48.53
2022-09-18T08:45:42.982Z,48.43
2022-09-18T08:48:20.732Z,48.63
2022-09-18T08:51:01.504Z,48.64
2022-09-18T08:53:37.190Z,48.19
2022-09-18T08:56:31.115Z,48.42
2022-09-18T08:59:37.943Z,48.60
2022-09-18T09:02:28.766Z,48.49
2022-09-18T09:05:07.088Z,48.70
2022-09-18T09:07:57.736Z,49.78
2022-09-18T09:10:40.840Z,49.30
2022-09-18T09:13:38.054Z,49.45
2022-09-18T09:16:17.010Z,50.73
2022-09-18T09:19:00.626Z,50.61
2022-09-18T09:21:54.313Z,50.32
2022-09-18T09:24:33.379Z,50.60
2022-09-18T09:27:29.227Z,50.04
2022-09-18T09:30:21.610Z,49.60
2022-09-18T09:33:37.686Z,49.14
2022-09-18T09:36:37.787Z,49.42
2022-09-18T09:39:22.608Z,48.72
2022-09-18T09:42:03.235Z,49.15
2022-09-18T09:44:40.286Z,49.51
2022-09-18T09:47:32.994Z,48.92
2022-09-18T09:50:26.796Z,48.32
2022-09-18T09:53:03.639Z,47.78
2022-09-18T09:55:45.942Z,47.61
2022-09-18T09:58:35.003Z,47.98
2022-09-18T10:01:15.139Z,47.45
2022-09-18T10:03:59.016Z,47.24
2022-09-18T10:06:45.228Z,47.48
2022-09-18T10:09:26.326Z,47.52
2022-09-18T10:12:04.949Z,47.75
2022-09-18T10:14:47.431Z,48.51
2022-09-18T10:17:22.233Z,48.88
2022-09-18T10:19:56.341Z,48.72
2022-09-18T10:22:29.857Z,48.57
2022-09-18T10:25:13.356Z,48.73
2022-09-18T10:27:46.090Z,48.65
2022-09-18T10:30:20.343Z,48.64
2022-09-18T10:32:59.726Z,48.27
2022-09-18T10:35:45.921Z,48.13
2022-09-18T10:38:33.344Z,49.42
2022-09-18T10:41:25.232Z,49.10
2022-09-18T10:44:07.108Z,49.43
2022-09-18T10:46:53.544Z,49.68
2022-09-18T10:49:31.482Z,49.99
2022-09-18T10:52:35.103Z,49.71
2022-09-18T10:55:33.870Z,49.81
2022-09-18T10:58:15.105Z,49.78
2022-09-18T11:01:02.726Z,49.96
2022-09-18T11:03:42.572Z,49.79
2022-09-18T11:06:24.213Z,49.78
2022-09-18T11:09:01.605Z,49.78
2022-09-18T11:11:39.621Z,49.86
2022-09-18T11:14:24.770Z,50.25
2022-09-18T11:17:05.206Z,50.12
2022-09-18T11:19:52.388Z,50.21
2022-09-18T11:22:38.396Z,50.18
2022-09-18T11:25:24.680Z,50.08
2022-09-18T11:28:01.558Z,49.71
2022-09-18T11:30:40.795Z,49.71
2022-09-18T11:33:25.002Z,49.81
2022-09-18T11:36:06.706Z,50.35
2022-09-18T11:38:44.214Z,50.08
2022-09-18T11:41:24.246Z,49.86
2022-09-18T11:44:02.763Z,49.90
2022-09-18T11:46:50.391Z,49.48
2022-09-18T11:49:29.445Z,49.82
2022-09-18T11:52:16.066Z,49.95
2022-09-18T11:54:59.196Z,49.36
2022-09-18T11:57:38.688Z,49.20
2022-09-18T12:00:18.682Z,49.43
2022-09-18T12:03:07.294Z,50.09
2022-09-18T12:05:53.452Z,50.15
2022-09-18T12:08:44.772Z,49.80
2022-09-18T12:11:24.406Z,50.06
2022-09-18T12:14:05.154Z,50.02
2022-09-18T12:16:52.970Z,49.66
2022-09-18T12:19:33.898Z,49.53
2022-09-18T12:22:13.681Z,49.54
2022-09-18T12:24:49.062Z,49.77
2022-09-18T12:27:36.066Z,50.79
2022-09-18T12:30:12.731Z,50.18
2022-09-18T12:33:05.995Z,50.26
2022-09-18T12:35:54.092Z,49.85
2022-09-18T12:38:41.867Z,50.27
2022-09-18T12:41:34.250Z,49.95
2022-09-18T12:44:27.003Z,50.42
2022-09-18T12:47:13.541Z,50.19
2022-09-18T12:50:08.766Z,49.83
2022-09-18T12:53:09.135Z,49.86
2022-09-18T12:56:12.698Z,50.99
2022-09-18T12:59:07.326Z,50.88
2022-09-18T13:01:46.958Z,51.00
2022-09-18T13:04:26.277Z,51.05
2022-09-18T13:07:04.543Z,50.90
2022-09-18T13:09:44.745Z,50.47
2022-09-18T13:12:22.963Z,50.57
2022-09-18T13:15:02.419Z,50.88
2022-09-18T13:17:38.962Z,50.67
2022-09-18T13:20:18.057Z,51.62
2022-09-18T13:22:54.029Z,51.14
2022-09-18T13:25:31.557Z,51.37
2022-09-18T13:28:08.703Z,50.79
2022-09-18T13:30:43.750Z,51.19
2022-09-18T13:33:24.942Z,50.61
2022-09-18T13:35:59.274Z,50.46
2022-09-18T13:38:34.354Z,50.24
2022-09-18T13:41:10.110Z,51.22
2022-09-18T13:43:46.353Z,50.99
2022-09-18T13:46:34.017Z,51.51
2022-09-18T13:49:29.956Z,51.25
2022-09-18T13:52:28.505Z,51.47
2022-09-18T13:55:02.276Z,51.01
2022-09-18T13:57:35.080Z,50.89
2022-09-18T14:00:39.897Z,50.93
2022-09-18T14:03:37.266Z,50.91
2022-09-18T14:06:43.387Z,50.21
2022-09-18T14:09:28.488Z,50.48
2022-09-18T14:12:12.374Z,51.25
2022-09-18T14:14:57.168Z,51.19
2022-09-18T14:17:31.867Z,50.90
2022-09-18T14:20:19.496Z,51.10
2022-09-18T14:22:52.645Z,51.10
2022-09-18T14:25:45.535Z,50.98
2022-09-18T14:28:21.540Z,51.24
2022-09-18T14:31:28.238Z,51.48
2022-09-18T14:34:04.444Z,51.51
2022-09-18T14:36:46.430Z,50.97
2022-09-18T14:39:26.291Z,51.50
2022-09-18T14:42:02.882Z,51.28
2022-09-18T14:44:37.906Z,51.24
2022-09-18T14:47:21.588Z,51.05
2022-09-18T14:49:54.733Z,51.22
2022-09-18T14:52:30.802Z,50.73
2022-09-18T14:55:11.903Z,51.60
2022-09-18T14:57:48.421Z,50.97
2022-09-18T15:00:25.547Z,51.86
2022-09-18T15:03:01.346Z,52.72
2022-09-18T15:05:34.673Z,52.34
2022-09-18T15:08:17.879Z,51.84
2022-09-18T15:10:53.856Z,51.53
2022-09-18T15:13:27.096Z,51.75
2022-09-18T15:16:01.908Z,51.19
2022-09-18T15:18:45.260Z,51.36
2022-09-18T15:21:22.660Z,51.90
2022-09-18T15:23:58.277Z,51.58
2022-09-18T15:26:36.099Z,52.06
2022-09-18T15:29:19.340Z,52.73
2022-09-18T15:31:53.264Z,52.04
2022-09-18T15:34:30.025Z,52.32
2022-09-18T15:37:05.459Z,52.27
2022-09-18T15:39:42.551Z,52.46
2022-09-18T15:42:27.888Z,51.85
2022-09-18T15:45:19.658Z,51.86
2022-09-18T15:47:53.465Z,52.20
2022-09-18T15:50:34.356Z,52.37
2022-09-18T15:53:31.161Z,52.86
2022-09-18T15:56:09.341Z,52.83
2022-09-18T15:58:45.875Z,52.65
2022-09-18T16:01:25.921Z,52.22
2022-09-18T16:04:08.764Z,52.31
2022-09-18T16:06:49.263Z,52.30
2022-09-18T16:09:37.369Z,52.35
2022-09-18T16:12:35.837Z,52.65
2022-09-18T16:15:18.555Z,52.40
2022-09-18T16:18:03.937Z,52.75
2022-09-18T16:20:41.453Z,52.73
2022-09-18T16:23:25.659Z,52.21
2022-09-18T16:26:05.815Z,51.63
2022-09-18T16:28:43.079Z,51.36
2022-09-18T16:31:19.195Z,51.87
2022-09-18T16:33:57.092Z,51.90
2022-09-18T16:36:33.226Z,51.91
2022-09-18T16:39:09.210Z,51.90
2022-09-18T16:41:42.650Z,51.66
2022-09-18T16:44:18.788Z,52.31
2022-09-18T16:46:55.277Z,51.99
2022-09-18T16:49:31.563Z,51.40
2022-09-18T16:52:04.796Z,51.37
2022-09-18T16:54:38.521Z,51.17
2022-09-18T16:57:13.812Z,51.36
2022-09-18T16:59:49.997Z,51.26
2022-09-18T17:02:25.958Z,51.43
2022-09-18T17:05:01.740Z,51.60
2022-09-18T17:07:37.681Z,51.49
2022-09-18T17:10:12.734Z,51.14
2022-09-18T17:12:53.373Z,51.50
2022-09-18T17:15:28.102Z,51.18
2022-09-18T17:18:05.491Z,50.78
2022-09-18T17:20:38.649Z,51.05
2022-09-18T17:23:11.738Z,51.31
2022-09-18T17:25:44.720Z,51.40
2022-09-18T17:28:20.196Z,51.19
2022-09-18T17:30:55.148Z,50.77
2022-09-18T17:33:28.577Z,50.92
2022-09-18T17:36:05.104Z,51.39
2022-09-18T17:38:39.263Z,51.26
2022-09-18T17:41:14.969Z,52.38
2022-09-18T17:43:53.716Z,51.87
2022-09-18T17:46:30.317Z,51.95
2022-09-18T17:49:03.762Z,51.50
2022-09-18T17:51:37.120Z,51.22
2022-09-18T17:54:23.413Z,51.10
2022-09-18T17:56:57.390Z,51.12
2022-09-18T17:59:30.547Z,51.33
2022-09-18T18:02:05.196Z,51.42
2022-09-18T18:04:38.841Z,51.38
2022-09-18T18:07:12.169Z,51.10
2022-09-18T18:09:46.644Z,50.94
2022-09-18T18:12:19.764Z,50.98
2022-09-18T18:14:54.931Z,51.14
2022-09-18T18:17:38.159Z,51.42
2022-09-18T18:20:11.059Z,51.30
2022-09-18T18:22:43.810Z,51.75
2022-09-18T18:25:16.739Z,51.21
2022-09-18T18:27:49.527Z,51.20
2022-09-18T18:30:24.107Z,51.26
2022-09-18T18:32:58.376Z,51.88
2022-09-18T18:35:31.340Z,51.03
2022-09-18T18:38:04.109Z,51.01
2022-09-18T18:40:38.918Z,50.93
2022-09-18T18:43:14.785Z,50.41
2022-09-18T18:45:52.479Z,50.48
2022-09-18T18:48:26.688Z,50.34
2022-09-18T18:50:59.903Z,50.59
2022-09-18T18:53:33.253Z,50.72
2022-09-18T18:56:07.824Z,51.07
2022-09-18T18:58:41.102Z,50.84
2022-09-18T19:01:16.344Z,51.17
2022-09-18T19:03:54.630Z,51.09
2022-09-18T19:06:28.202Z,50.87
2022-09-18T19:09:03.222Z,50.95
2022-09-18T19:11:42.816Z,50.69
2022-09-18T19:14:18.072Z,50.42
2022-09-18T19:16:52.338Z,50.34
2022-09-18T19:19:29.266Z,50.49
2022-09-18T19:22:02.179Z,50.70
2022-09-18T19:24:34.994Z,50.36
2022-09-18T19:27:07.951Z,50.42
2022-09-18T19:29:41.941Z,49.71
2022-09-18T19:32:17.668Z,50.23
2022-09-18T19:34:52.570Z,49.96
2022-09-18T19:37:25.709Z,50.27
2022-09-18T19:39:59.802Z,50.17
2022-09-18T19:42:33.032Z,50.18
2022-09-18T19:45:06.959Z,50.00
2022-09-18T19:47:46.436Z,50.09
2022-09-18T19:50:26.169Z,50.41
2022-09-18T19:53:01.940Z,49.76
2022-09-18T19:55:36.268Z,50.19
2022-09-18T19:58:15.196Z,50.05
2022-09-18T20:00:49.991Z,49.71
2022-09-18T20:03:22.951Z,50.13
2022-09-18T20:06:01.016Z,50.03
2022-09-18T20:08:33.923Z,49.64
2022-09-18T20:11:06.932Z,50.00
2022-09-18T20:13:39.823Z,49.49
2022-09-18T20:16:13.770Z,49.76
2022-09-18T20:18:47.640Z,49.63
2022-09-18T20:21:22.036Z,49.56
2022-09-18T20:23:57.495Z,49.96
2022-09-18T20:26:30.668Z,49.52
2022-09-18T20:29:06.211Z,49.60
2022-09-18T20:31:39.448Z,49.19
2022-09-18T20:34:15.725Z,49.24
2022-09-18T20:36:52.148Z,49.53
2022-09-18T20:39:25.422Z,49.51
2022-09-18T20:42:04.894Z,49.44
2022-09-18T20:44:42.571Z,49.91
2022-09-18T20:47:18.154Z,49.93
2022-09-18T20:49:53.685Z,49.61
2022-09-18T20:52:29.320Z,49.73
2022-09-18T20:55:02.805Z,49.96
2022-09-18T20:57:45.391Z,49.74
2022-09-18T21:00:29.759Z,49.28
2022-09-18T21:03:02.944Z,49.62
2022-09-18T21:05:37.245Z,49.46
2022-09-18T21:08:11.639Z,50.30
2022-09-18T21:10:47.660Z,49.92
2022-09-18T21:13:20.692Z,49.89
2022-09-18T21:15:53.720Z,49.71
2022-09-18T21:18:27.101Z,49.68
2022-09-18T21:21:03.806Z,50.04
2022-09-18T21:23:56.127Z,49.89
2022-09-18T21:26:31.682Z,49.89
2022-09-18T21:29:08.507Z,49.63
2022-09-18T21:31:43.213Z,50.61
2022-09-18T21:34:23.765Z,50.20
2022-09-18T21:36:58.632Z,50.30
2022-09-18T21:39:33.793Z,50.31
2022-09-18T21:42:08.430Z,50.14
2022-09-18T21:44:41.305Z,50.28
2022-09-18T21:47:14.277Z,50.02
2022-09-18T21:49:47.160Z,50.68
2022-09-18T21:52:19.934Z,50.36
2022-09-18T21:54:54.018Z,50.51
2022-09-18T21:57:26.757Z,50.30
2022-09-18T21:59:59.514Z,50.24
2022-09-18T22:02:32.269Z,49.61
2022-09-18T22:05:11.598Z,49.99
2022-09-18T22:07:44.930Z,50.15
2022-09-18T22:10:19.375Z,49.49
2022-09-18T22:12:57.132Z,49.86
2022-09-18T22:15:30.223Z,50.17
2022-09-18T22:18:02.853Z,50.03
2022-09-18T22:20:36.684Z,50.06
2022-09-18T22:23:09.416Z,50.01
2022-09-18T22:25:43.601Z,50.00
2022-09-18T22:28:16.466Z,50.23
2022-09-18T22:30:49.287Z,49.89
2022-09-18T22:33:22.458Z,50.09
2022-09-18T22:35:55.248Z,50.03
2022-09-18T22:38:27.963Z,49.85
2022-09-18T22:41:04.559Z,49.55
2022-09-18T22:43:37.928Z,49.92
2022-09-18T22:46:13.048Z,49.86
2022-09-18T22:48:45.980Z,50.01
2022-09-18T22:51:20.764Z,49.73
2022-09-18T22:53:56.065Z,49.72
2022-09-18T22:56:30.594Z,50.06
2022-09-18T22:59:04.076Z,49.28
2022-09-18T23:01:39.309Z,49.88
2022-09-18T23:04:12.384Z,50.01
2022-09-18T23:06:48.756Z,49.45
2022-09-18T23:09:22.171Z,49.32
2022-09-18T23:11:57.143Z,49.52
2022-09-18T23:14:31.423Z,50.02
2022-09-18T23:17:04.221Z,50.02
2022-09-18T23:19:37.060Z,49.58
2022-09-18T23:22:12.185Z,49.91
2022-09-18T23:24:44.853Z,50.09
2022-09-18T23:27:20.622Z,50.54
2022-09-18T23:29:53.417Z,50.32
2022-09-18T23:32:26.170Z,50.31
2022-09-18T23:34:58.978Z,50.36
2022-09-18T23:37:31.762Z,50.44
2022-09-18T23:40:05.063Z,50.53
2022-09-18T23:42:39.620Z,50.30
2022-09-18T23:45:12.359Z,50.09
2022-09-18T23:47:45.353Z,50.27
2022-09-18T23:50:19.588Z,49.76
2022-09-18T23:52:52.933Z,50.37
2022-09-18T23:55:27.136Z,50.29
2022-09-18T23:58:01.300Z,50.74
